Summerfield, KS (66541)

4:18 AM CST on February 10, 2016 (GMT -0600)
Beatrice Municipal | | Change Station
CLOSE
Current Station
Airport
Location: Beatrice,
Elevation: 1322 ft
Nearby Weather Stations

Elev 1322 ft 40.30 °N, 96.75 °W | Updated 23 minutes ago

Overcast
Overcast
28 °F
Feels Like 19 °F
N
8
Wind Variable Wind from SSW

Today
High -- | Low -- °F
--% Chance of Precip.
Yesterday
High -- | Low -- °F
Precip. -- in
Pressure 30.10 in
Visibility 10.0 miles
Clouds Overcast 9000 ft
Windchill 19 °F
Dew Point 16 °F
Humidity 61%
Rainfall 0.00 in
Snow Depth Not available.
7:24 AM 5:54 PM
Waxing Crescent, 4% visible
METAR KBIE 100955Z AUTO 20007KT 10SM OVC090 M02/M09 A3010 RMK AO2 T10251091
Pressure 30.10 in
Visibility 10.0 miles
Clouds Overcast 9000 ft
Windchill 19 °F
Dew Point 16 °F
Humidity 61%
Rainfall 0.00 in
Snow Depth Not available.
7:24 AM 5:54 PM
Waxing Crescent, 4% visible
METAR KBIE 100955Z AUTO 20007KT 10SM OVC090 M02/M09 A3010 RMK AO2 T10251091

10-Day Weather Forecast

Almanac

Astronomy

Feb. 10, 2016 Rise Set
Actual Time
Civil Twilight
Nautical Twilight
Astronomical Twilight
Moon
Length of Visible Light
Length of Day
Tomorrow will be .
, % of the Moon is Illuminated

Today's Extremes

State Highs State Lows

Community

WunderPhotos

Upload Photos

1,891,830 photos uploaded!

WunderBlog® & News

Nearby

Air Quality

  Air Quality AQ Index Pollutant
Not available.

Snow Depth

Station Depth Elevation

Earthquake Activity

City Distance Mag. Time & Date
Minimum magnitude displayed is 2.5.

Coastal Water Temperatures

Place Temperature

Stations

Nearby Weather Stations

Station Location Temp. Windchill Dew Point Humidity Wind Precip. Elev Updated Type
                   

Watches & Warnings

There are currently no watches in effect.